createdAt,value
2022-08-03T00:01:40.354Z,2.47
2022-08-03T00:06:43.032Z,2.77
2022-08-03T00:11:45.568Z,2.40
2022-08-03T00:16:48.086Z,2.10
2022-08-03T00:21:50.793Z,2.50
2022-08-03T00:26:53.293Z,2.70
2022-08-03T00:31:59.454Z,2.10
2022-08-03T00:37:03.054Z,2.33
2022-08-03T00:42:06.357Z,2.10
2022-08-03T00:47:10.461Z,2.38
2022-08-03T00:52:14.810Z,2.30
2022-08-03T00:57:17.408Z,2.30
2022-08-03T01:02:19.954Z,2.85
2022-08-03T01:07:35.674Z,2.53
2022-08-03T01:13:04.932Z,2.27
2022-08-03T01:18:46.445Z,2.38
2022-08-03T01:23:57.826Z,2.63
2022-08-03T01:29:18.055Z,2.60
2022-08-03T01:34:23.572Z,2.60
2022-08-03T01:39:27.484Z,1.90
2022-08-03T01:44:34.725Z,1.90
2022-08-03T01:49:40.275Z,2.17
2022-08-03T01:54:44.688Z,2.20
2022-08-03T01:59:50.202Z,2.10
2022-08-03T02:04:55.868Z,1.75
2022-08-03T02:09:59.616Z,2.35
2022-08-03T02:15:03.421Z,2.00
2022-08-03T02:20:06.813Z,2.10
2022-08-03T02:25:10.884Z,2.40
2022-08-03T02:30:14.609Z,1.63
2022-08-03T02:35:18.249Z,2.95
2022-08-03T02:40:22.152Z,3.65
2022-08-03T02:45:25.629Z,3.50
2022-08-03T02:50:30.560Z,4.72
2022-08-03T02:55:35.833Z,4.55
2022-08-03T03:00:46.135Z,4.50
2022-08-03T03:05:53.693Z,5.45
2022-08-03T03:11:01.101Z,3.88
2022-08-03T03:16:05.668Z,4.03
2022-08-03T03:21:09.911Z,5.75
2022-08-03T03:26:14.787Z,4.30
2022-08-03T03:31:17.558Z,3.97
2022-08-03T03:36:20.349Z,4.13
2022-08-03T03:41:22.891Z,3.92
2022-08-03T03:46:25.833Z,3.80
2022-08-03T03:51:28.341Z,3.50
2022-08-03T03:56:30.995Z,3.50
2022-08-03T04:01:33.703Z,3.13
2022-08-03T04:06:54.570Z,2.75
2022-08-03T04:12:00.235Z,2.83
2022-08-03T04:17:06.307Z,2.37
2022-08-03T04:22:12.245Z,2.08
2022-08-03T04:27:17.116Z,2.50
2022-08-03T04:32:20.574Z,2.50
2022-08-03T04:37:35.829Z,2.35
2022-08-03T04:42:39.704Z,2.05
2022-08-03T04:47:42.642Z,2.43
2022-08-03T04:52:45.427Z,2.03
2022-08-03T04:57:47.960Z,2.08
2022-08-03T05:02:50.580Z,2.33
2022-08-03T05:07:53.244Z,2.93
2022-08-03T05:12:55.724Z,3.30
2022-08-03T05:17:58.499Z,2.97
2022-08-03T05:23:03.953Z,3.40
2022-08-03T05:28:06.596Z,2.90
2022-08-03T05:33:09.340Z,3.83
2022-08-03T05:38:11.811Z,3.40
2022-08-03T05:43:14.317Z,2.77
2022-08-03T05:48:16.936Z,3.03
2022-08-03T05:53:19.513Z,3.42
2022-08-03T05:58:22.132Z,3.53
2022-08-03T06:03:24.829Z,3.85
2022-08-03T06:08:27.413Z,3.30
2022-08-03T06:13:30.027Z,3.40
2022-08-03T06:18:32.605Z,3.90
2022-08-03T06:23:52.364Z,4.22
2022-08-03T06:28:56.932Z,4.77
2022-08-03T06:34:33.480Z,4.67
2022-08-03T06:39:23.651Z,4.90
2022-08-03T06:44:26.473Z,4.50
2022-08-03T06:49:29.032Z,4.70
2022-08-03T06:54:33.303Z,4.78
2022-08-03T07:00:08.544Z,4.38
2022-08-03T07:04:58.498Z,4.47
2022-08-03T07:10:02.271Z,4.00
2022-08-03T07:15:06.041Z,3.67
2022-08-03T07:20:09.304Z,4.17
2022-08-03T07:25:12.057Z,3.57
2022-08-03T07:30:16.468Z,4.47
2022-08-03T07:35:24.489Z,4.18
2022-08-03T07:40:30.723Z,4.10
2022-08-03T07:45:34.625Z,3.80
2022-08-03T07:50:37.125Z,3.60
2022-08-03T07:55:42.756Z,4.37
2022-08-03T08:00:45.333Z,3.75
2022-08-03T08:05:48.116Z,4.35
2022-08-03T08:18:52.506Z,3.60
2022-08-03T08:23:57.137Z,3.90
2022-08-03T08:29:00.551Z,3.50
2022-08-03T08:34:05.768Z,3.50
2022-08-03T08:39:08.328Z,3.10
2022-08-03T08:44:11.033Z,2.83
2022-08-03T08:49:14.722Z,3.10
2022-08-03T08:54:19.897Z,2.63
2022-08-03T08:59:22.722Z,2.25
2022-08-03T09:04:25.820Z,2.33
2022-08-03T09:10:10.427Z,2.90
2022-08-03T09:15:14.790Z,2.70
2022-08-03T09:20:13.466Z,2.72
2022-08-03T09:25:24.396Z,2.30
2022-08-03T09:30:33.680Z,3.13
2022-08-03T09:35:57.445Z,2.50
2022-08-03T09:41:01.038Z,2.60
2022-08-03T09:46:08.008Z,3.00
2022-08-03T09:51:13.627Z,2.42
2022-08-03T09:56:47.330Z,2.80
2022-08-03T10:01:49.909Z,2.50
2022-08-03T10:07:06.980Z,2.55
2022-08-03T10:12:11.156Z,2.30
2022-08-03T10:17:14.401Z,2.20
2022-08-03T10:22:31.682Z,2.10
2022-08-03T10:33:51.371Z,2.60
2022-08-03T10:38:59.795Z,2.38
2022-08-03T10:44:08.650Z,2.60
2022-08-03T10:49:17.166Z,2.60
2022-08-03T10:55:07.790Z,2.50
2022-08-03T11:00:14.352Z,2.35
2022-08-03T11:05:30.764Z,2.38
2022-08-03T11:10:33.609Z,2.60
2022-08-03T11:15:36.518Z,2.60
2022-08-03T11:20:49.213Z,2.55
2022-08-03T11:26:14.222Z,2.47
2022-08-03T11:31:47.257Z,2.40
2022-08-03T11:37:26.401Z,2.35
2022-08-03T11:42:39.885Z,2.33
2022-08-03T11:47:50.907Z,3.20
2022-08-03T11:52:56.638Z,2.33
2022-08-03T11:59:10.651Z,2.42
2022-08-03T12:03:52.919Z,2.20
2022-08-03T12:08:57.967Z,2.80
2022-08-03T12:14:49.871Z,2.38
2022-08-03T12:19:23.441Z,2.43
2022-08-03T12:24:28.769Z,2.70
2022-08-03T12:29:45.254Z,2.55
2022-08-03T12:35:13.383Z,2.40
2022-08-03T12:40:37.535Z,2.00
2022-08-03T12:45:50.249Z,2.22
2022-08-03T12:50:53.687Z,1.88
2022-08-03T12:56:06.344Z,1.73
2022-08-03T13:06:35.007Z,2.40
2022-08-03T13:11:55.948Z,1.67
2022-08-03T13:17:00.354Z,2.75
2022-08-03T13:22:13.544Z,2.60
2022-08-03T13:28:00.949Z,3.00
2022-08-03T13:32:39.064Z,2.60
2022-08-03T13:37:41.593Z,2.25
2022-08-03T13:42:44.372Z,2.45
2022-08-03T13:47:49.254Z,2.20
2022-08-03T13:52:53.074Z,2.67
2022-08-03T14:03:14.496Z,2.43
2022-08-03T14:08:18.592Z,2.90
2022-08-03T14:13:29.135Z,2.25
2022-08-03T14:24:11.015Z,2.00
2022-08-03T14:29:15.047Z,2.42
2022-08-03T14:34:19.160Z,2.30
2022-08-03T14:39:22.028Z,2.27
2022-08-03T14:44:24.689Z,2.28
2022-08-03T14:50:38.634Z,1.70
2022-08-03T14:54:55.763Z,2.20
2022-08-03T15:00:09.368Z,2.30
2022-08-03T15:10:43.811Z,1.83
2022-08-03T15:15:48.787Z,2.50
2022-08-03T15:20:51.440Z,2.40
2022-08-03T15:26:28.121Z,1.95
2022-08-03T15:31:24.191Z,1.83
2022-08-03T15:36:29.818Z,2.45
2022-08-03T15:41:46.697Z,2.60
2022-08-03T15:46:49.421Z,2.30
2022-08-03T15:51:52.037Z,2.53
2022-08-03T15:57:16.560Z,2.50
2022-08-03T16:02:19.491Z,2.13
2022-08-03T16:08:02.605Z,2.30
2022-08-03T16:13:09.492Z,2.33
2022-08-03T16:18:12.150Z,2.67
2022-08-03T16:23:19.252Z,2.40
2022-08-03T16:28:25.760Z,2.20
2022-08-03T16:33:29.044Z,2.33
2022-08-03T16:38:32.732Z,2.37
2022-08-03T16:43:35.847Z,2.05
2022-08-03T16:48:40.350Z,2.55
2022-08-03T16:54:07.219Z,2.23
2022-08-03T16:59:06.596Z,2.60
2022-08-03T17:04:11.265Z,3.30
2022-08-03T17:09:19.205Z,2.35
2022-08-03T17:14:31.495Z,2.23
2022-08-03T17:19:36.697Z,2.42
2022-08-03T17:24:42.237Z,2.15
2022-08-03T17:29:48.856Z,2.20
2022-08-03T17:34:51.521Z,2.78
2022-08-03T17:39:59.247Z,2.65
2022-08-03T17:45:03.816Z,2.37
2022-08-03T17:50:24.148Z,2.60
2022-08-03T17:55:56.495Z,2.78
2022-08-03T18:01:59.226Z,2.33
2022-08-03T18:06:56.161Z,2.47
2022-08-03T18:12:04.377Z,2.63
2022-08-03T18:17:10.885Z,2.80
2022-08-03T18:22:14.309Z,2.63
2022-08-03T18:27:19.460Z,2.70
2022-08-03T18:32:22.407Z,3.00
2022-08-03T18:37:28.624Z,3.03
2022-08-03T18:42:32.867Z,4.80
2022-08-03T18:47:54.497Z,3.55
2022-08-03T18:53:21.750Z,3.88
2022-08-03T18:58:35.717Z,3.83
2022-08-03T19:03:45.199Z,3.60
2022-08-03T19:09:09.637Z,3.10
2022-08-03T19:14:12.353Z,3.00
2022-08-03T19:19:18.965Z,2.67
2022-08-03T19:24:23.375Z,2.90
2022-08-03T19:29:57.947Z,3.03
2022-08-03T19:34:52.162Z,3.47
2022-08-03T19:39:56.391Z,3.40
2022-08-03T19:45:13.883Z,6.28
2022-08-03T19:50:16.760Z,4.77
2022-08-03T19:55:19.384Z,4.20
2022-08-03T20:00:26.389Z,3.72
2022-08-03T20:05:29.922Z,3.73
2022-08-03T20:10:49.437Z,3.22
2022-08-03T20:15:53.797Z,3.67
2022-08-03T20:21:19.086Z,6.63
2022-08-03T20:26:23.647Z,3.33
2022-08-03T20:31:36.187Z,3.30
2022-08-03T20:36:39.135Z,3.20
2022-08-03T20:41:41.983Z,3.40
2022-08-03T20:46:54.974Z,3.08
2022-08-03T20:52:02.657Z,3.95
2022-08-03T20:57:10.048Z,3.83
2022-08-03T21:02:13.141Z,3.10
2022-08-03T21:07:23.488Z,3.25
2022-08-03T21:12:54.018Z,3.80
2022-08-03T21:17:59.184Z,3.40
2022-08-03T21:23:02.636Z,3.55
2022-08-03T21:28:09.839Z,3.75
2022-08-03T21:33:12.390Z,3.77
2022-08-03T21:38:19.182Z,3.47
2022-08-03T21:43:21.871Z,2.78
2022-08-03T21:48:26.249Z,3.00
2022-08-03T21:54:02.770Z,2.58
2022-08-03T21:59:04.784Z,3.28
2022-08-03T22:04:09.359Z,2.37
2022-08-03T22:09:14.713Z,3.07
2022-08-03T22:14:17.287Z,3.00
2022-08-03T22:19:19.868Z,2.88
2022-08-03T22:24:24.672Z,3.27
2022-08-03T22:29:27.216Z,2.80
2022-08-03T22:34:30.104Z,2.80
2022-08-03T22:39:32.811Z,3.07
2022-08-03T22:44:36.546Z,2.60
2022-08-03T22:49:39.273Z,3.35
2022-08-03T22:54:42.199Z,3.50
2022-08-03T22:59:46.846Z,3.07
2022-08-03T23:04:55.384Z,2.95
2022-08-03T23:09:58.900Z,3.25
2022-08-03T23:15:03.900Z,3.13
2022-08-03T23:20:08.680Z,3.42
2022-08-03T23:25:12.204Z,2.50
2022-08-03T23:30:14.860Z,2.90
2022-08-03T23:36:27.931Z,2.90
2022-08-03T23:41:01.972Z,2.80
2022-08-03T23:46:05.454Z,3.27
2022-08-03T23:51:22.309Z,3.27
2022-08-03T23:56:40.043Z,3.33
